Time;durP1;ratioP1;P1;durP2;ratioP2;P2;SDS_P1;SDS_P2;PMS_P1;PMS_P2;Temp;Humidity;BMP_temperature;BMP_pressure;BME280_temperature;BME280_humidity;BME280_pressure;Samples;Min_cycle;Max_cycle;Signal;HPM_P1;HPM_P2
2021/03/17 00:02:14;;;;;;;3.05;1.80;;;;;;;4.78;100.00;96157.69;5010190;28;20056;-88
2021/03/17 00:04:40;;;;;;;1.00;0.85;;;;;;;4.74;100.00;96156.19;5007335;28;20060;-88
2021/03/17 00:07:06;;;;;;;2.60;1.77;;;;;;;4.75;100.00;96157.88;5005723;28;20033;-88
2021/03/17 00:09:32;;;;;;;1.42;1.20;;;;;;;4.76;100.00;96143.72;5022780;28;20095;-88
2021/03/17 00:11:58;;;;;;;0.95;0.95;;;;;;;4.86;100.00;96155.44;5008263;28;20440;-87
2021/03/17 00:14:23;;;;;;;3.70;1.38;;;;;;;4.86;100.00;96150.97;5009510;28;20067;-87
2021/03/17 00:16:49;;;;;;;1.15;0.70;;;;;;;4.91;100.00;96169.25;5009779;28;20029;-88
2021/03/17 00:19:15;;;;;;;2.53;2.33;;;;;;;4.86;100.00;96163.41;5009913;28;20029;-88
2021/03/17 00:21:41;;;;;;;2.00;1.73;;;;;;;4.85;100.00;96162.53;5008650;28;20068;-85
2021/03/17 00:24:07;;;;;;;3.25;1.42;;;;;;;4.90;100.00;96156.94;5003172;28;20441;-87
2021/03/17 00:26:33;;;;;;;1.10;1.10;;;;;;;4.83;100.00;96161.75;5006390;28;20025;-87
2021/03/17 00:28:58;;;;;;;2.75;1.40;;;;;;;4.80;100.00;96163.75;5006669;28;20030;-87
2021/03/17 00:31:24;;;;;;;2.38;1.70;;;;;;;4.82;100.00;96159.22;5003036;28;20436;-86
2021/03/17 00:33:49;;;;;;;3.03;1.98;;;;;;;4.79;100.00;96148.81;5018552;28;20458;-87
2021/03/17 00:36:15;;;;;;;3.47;2.05;;;;;;;4.82;100.00;96161.88;5019854;28;20556;-87
2021/03/17 00:38:41;;;;;;;5.45;2.20;;;;;;;4.84;100.00;96154.69;5003023;28;20017;-86
2021/03/17 00:41:07;;;;;;;1.35;1.17;;;;;;;4.84;100.00;96149.38;5003292;28;20025;-86
2021/03/17 00:43:32;;;;;;;2.05;1.40;;;;;;;4.78;100.00;96157.69;5002981;28;20404;-86
2021/03/17 00:45:58;;;;;;;3.03;1.70;;;;;;;4.74;100.00;96157.03;5006381;28;20509;-87
2021/03/17 00:48:23;;;;;;;12.32;2.40;;;;;;;4.77;100.00;96146.25;5004027;28;20025;-88
2021/03/17 00:50:49;;;;;;;2.20;1.67;;;;;;;4.82;100.00;96144.19;5006215;28;20039;-86
2021/03/17 00:53:14;;;;;;;1.73;1.25;;;;;;;4.83;100.00;96151.16;5007261;28;20059;-88
2021/03/17 00:55:40;;;;;;;1.73;1.60;;;;;;;4.75;100.00;96142.84;5008000;28;20111;-87
2021/03/17 00:58:05;;;;;;;1.40;1.20;;;;;;;4.78;100.00;96144.47;5008734;28;20021;-87
2021/03/17 01:00:31;;;;;;;2.08;1.15;;;;;;;4.72;100.00;96137.75;5005492;28;20036;-87
2021/03/17 01:02:56;;;;;;;1.58;1.48;;;;;;;4.79;100.00;96143.53;5003233;28;20025;-86
2021/03/17 01:05:22;;;;;;;9.35;1.65;;;;;;;4.83;100.00;96140.56;5018062;28;20033;-86
2021/03/17 01:07:48;;;;;;;0.43;0.43;;;;;;;4.80;100.00;96137.25;5000479;28;20084;-86
2021/03/17 01:10:22;;;;;;;2.40;1.77;;;;;;;4.63;99.84;96138.31;5002855;28;20029;-86
2021/03/17 01:12:48;;;;;;;1.88;1.77;;;;;;;4.62;100.00;96138.41;5001740;28;20036;-86
2021/03/17 01:15:16;;;;;;;1.77;1.67;;;;;;;4.48;100.00;96117.22;5004386;28;20033;-87
2021/03/17 01:17:42;;;;;;;1.58;1.48;;;;;;;4.58;99.85;96124.53;5005684;28;20096;-86
2021/03/17 01:20:08;;;;;;;2.10;1.65;;;;;;;4.58;100.00;96135.13;5002501;28;20049;-87
2021/03/17 01:22:35;;;;;;;2.35;1.58;;;;;;;4.66;99.73;96129.31;5001659;28;20112;-87
2021/03/17 01:25:00;;;;;;;1.33;1.23;;;;;;;4.64;99.25;96132.09;5000966;28;20447;-87
2021/03/17 01:27:26;;;;;;;2.05;1.45;;;;;;;4.69;100.00;96132.66;5002027;28;20112;-87
2021/03/17 01:29:52;;;;;;;3.35;2.30;;;;;;;4.68;98.39;96123.00;5000563;28;20543;-87
2021/03/17 01:32:17;;;;;;;4.05;2.70;;;;;;;4.69;97.56;96130.00;5000256;28;20064;-87
2021/03/17 01:34:43;;;;;;;5.43;1.20;;;;;;;4.73;98.08;96131.53;5017051;28;20026;-86
2021/03/17 01:37:09;;;;;;;4.40;1.60;;;;;;;4.74;97.89;96125.25;5000461;28;20095;-86
2021/03/17 01:39:35;;;;;;;2.17;1.88;;;;;;;4.72;97.89;96126.31;5001046;28;20481;-86
2021/03/17 01:42:00;;;;;;;2.10;1.85;;;;;;;4.73;98.68;96139.47;5000837;28;20038;-86
2021/03/17 01:44:26;;;;;;;1.10;1.05;;;;;;;4.69;96.51;96130.00;5000098;28;20021;-87
2021/03/17 01:46:51;;;;;;;2.50;1.45;;;;;;;4.70;96.16;96129.06;4999900;28;20041;-86
2021/03/17 01:49:17;;;;;;;1.05;1.02;;;;;;;4.72;97.49;96129.81;4999515;28;20030;-87
2021/03/17 01:51:42;;;;;;;1.35;1.10;;;;;;;4.79;97.26;96136.44;4998930;28;20156;-87
2021/03/17 01:54:08;;;;;;;1.17;1.13;;;;;;;4.62;96.57;96125.16;4999431;28;20026;-87
2021/03/17 01:56:34;;;;;;;0.98;0.52;;;;;;;4.64;94.64;96120.63;4999595;28;20035;-87
2021/03/17 01:59:01;;;;;;;0.93;0.93;;;;;;;4.65;96.35;96128.47;4999177;28;20501;-87
2021/03/17 02:01:27;;;;;;;1.42;1.08;;;;;;;4.73;96.20;96123.56;4999830;28;20075;-87
2021/03/17 02:03:52;;;;;;;1.77;1.33;;;;;;;4.66;93.90;96124.88;4999726;28;20025;-86
2021/03/17 02:06:18;;;;;;;0.80;0.80;;;;;;;4.68;95.38;96125.63;4999736;28;20390;-87
2021/03/17 02:08:44;;;;;;;2.75;1.55;;;;;;;4.70;92.86;96130.84;4999600;28;20485;-87
2021/03/17 02:11:11;;;;;;;1.35;0.82;;;;;;;4.73;93.78;96128.88;4999919;28;20104;-87
2021/03/17 02:13:56;;;;;;;1.45;1.15;;;;;;;4.74;96.08;96135.84;4999657;28;20041;-87
2021/03/17 02:16:22;;;;;;;1.67;1.30;;;;;;;4.78;97.70;96137.38;4999740;28;20099;-87
2021/03/17 02:19:13;;;;;;;0.90;0.90;;;;;;;4.75;94.98;96137.56;5015479;28;20481;-87
2021/03/17 02:22:16;;;;;;;2.80;2.17;;;;;;;4.77;97.32;96140.94;5033572;28;20382;-87
2021/03/17 02:24:49;;;;;;;1.27;0.85;;;;;;;4.77;96.39;96137.44;5015421;28;20064;-87
2021/03/17 02:27:36;;;;;;;1.00;0.93;;;;;;;4.68;92.17;96136.22;4998945;28;20044;-86
2021/03/17 02:30:17;;;;;;;1.48;1.38;;;;;;;4.71;92.21;96140.47;5015570;28;20037;-87
2021/03/17 02:33:07;;;;;;;1.15;1.05;;;;;;;4.75;91.68;96137.56;5015243;28;20532;-87
2021/03/17 02:35:34;;;;;;;1.83;0.95;;;;;;;4.71;90.80;96130.75;5015267;28;20021;-86
2021/03/17 02:38:03;;;;;;;0.70;0.70;;;;;;;4.74;92.71;96137.63;5001118;28;20468;-86
2021/03/17 02:40:33;;;;;;;0.68;0.43;;;;;;;4.73;93.48;96144.75;5002289;28;20083;-87
2021/03/17 02:43:13;;;;;;;0.52;0.52;;;;;;;4.78;95.48;96145.31;5021369;28;20018;-87
2021/03/17 02:45:42;;;;;;;2.03;0.85;;;;;;;4.79;95.47;96139.09;5023922;28;20049;-87
2021/03/17 02:48:17;;;;;;;1.38;1.02;;;;;;;4.81;89.94;96139.81;5008974;28;20132;-87
2021/03/17 02:50:45;;;;;;;0.77;0.77;;;;;;;4.84;91.89;96146.72;5021597;28;20048;-87
2021/03/17 02:53:13;;;;;;;0.35;0.35;;;;;;;4.84;94.89;96136.13;5019245;28;20033;-87
2021/03/17 02:55:42;;;;;;;1.15;1.10;;;;;;;4.87;93.62;96135.94;4999613;28;20054;-87
2021/03/17 02:58:08;;;;;;;5.97;1.77;;;;;;;4.79;92.74;96136.44;4999032;28;20033;-87
2021/03/17 03:00:34;;;;;;;4.97;2.85;;;;;;;4.81;92.65;96138.97;4999974;28;20033;-86
2021/03/17 03:03:01;;;;;;;0.60;0.60;;;;;;;4.79;92.66;96125.84;5000894;28;20122;-88
2021/03/17 03:05:27;;;;;;;4.68;1.75;;;;;;;4.70;91.16;96131.72;4999188;28;20031;-86
2021/03/17 03:07:59;;;;;;;0.65;0.65;;;;;;;4.64;91.69;96137.38;4999244;28;20481;-86
2021/03/17 03:10:28;;;;;;;0.93;0.93;;;;;;;4.65;92.46;96138.22;5015566;28;20565;-87
2021/03/17 03:12:54;;;;;;;1.63;1.10;;;;;;;4.61;94.15;96144.66;5018835;28;20049;-87
2021/03/17 03:15:22;;;;;;;1.73;1.58;;;;;;;4.66;92.12;96143.44;5005669;28;20521;-87
2021/03/17 03:17:49;;;;;;;1.40;1.30;;;;;;;4.63;93.28;96146.25;5004673;28;20470;-88
2021/03/17 03:20:17;;;;;;;1.88;1.00;;;;;;;4.53;92.36;96134.53;5003084;28;20401;-87
2021/03/17 03:22:44;;;;;;;0.28;0.28;;;;;;;4.57;90.50;96148.44;5004265;28;20036;-87
2021/03/17 03:25:10;;;;;;;1.92;1.80;;;;;;;4.63;91.33;96148.91;5018601;28;20413;-86
2021/03/17 03:27:38;;;;;;;1.83;1.73;;;;;;;4.61;93.73;96145.50;5018373;28;20069;-86
2021/03/17 03:30:12;;;;;;;1.70;1.25;;;;;;;4.63;93.44;96140.97;5018102;28;20033;-86
2021/03/17 03:32:37;;;;;;;0.55;0.55;;;;;;;4.60;92.33;96146.44;5003438;28;20034;-89
2021/03/17 03:35:12;;;;;;;2.60;1.02;;;;;;;4.59;93.30;96149.19;5006065;28;20048;-86
2021/03/17 03:37:38;;;;;;;1.05;1.02;;;;;;;4.54;93.57;96148.63;5008716;28;20052;-88
2021/03/17 03:40:14;;;;;;;1.08;0.80;;;;;;;4.52;89.27;96135.50;5010965;28;20029;-89
2021/03/17 03:42:40;;;;;;;1.13;1.08;;;;;;;4.55;92.61;96129.16;5010960;28;20478;-89
2021/03/17 03:45:08;;;;;;;0.88;0.75;;;;;;;4.58;94.14;96135.13;5008551;28;20021;-88
2021/03/17 03:47:33;;;;;;;0.50;0.50;;;;;;;4.62;93.21;96136.59;5008460;28;20400;-89
2021/03/17 03:50:00;;;;;;;0.95;0.95;;;;;;;4.63;91.09;96143.63;5009082;28;20049;-88
2021/03/17 03:52:34;;;;;;;13.95;1.42;;;;;;;4.72;92.76;96151.00;5008478;28;20554;-88
2021/03/17 03:55:19;;;;;;;0.73;0.73;;;;;;;4.80;90.42;96135.47;5009309;28;20082;-88
2021/03/17 03:57:47;;;;;;;1.25;1.13;;;;;;;4.81;92.69;96136.31;5010064;28;20026;-88
2021/03/17 04:00:23;;;;;;;0.80;0.80;;;;;;;4.84;92.92;96142.28;5010445;28;20030;-88
2021/03/17 04:02:51;;;;;;;1.38;0.93;;;;;;;4.95;93.03;96149.59;5026639;28;20056;-88
2021/03/17 04:05:22;;;;;;;5.57;2.50;;;;;;;4.90;92.20;96144.56;5010460;28;20025;-87
2021/03/17 04:07:54;;;;;;;1.87;1.70;;;;;;;4.89;92.24;96148.16;5009367;28;20036;-88
2021/03/17 04:10:24;;;;;;;0.90;0.90;;;;;;;4.91;92.70;96156.88;5008113;28;20268;-88
2021/03/17 04:12:54;;;;;;;3.38;1.67;;;;;;;4.92;90.07;96155.91;5024540;28;20456;-87
2021/03/17 04:15:20;;;;;;;0.93;0.90;;;;;;;4.76;91.81;96144.56;5006722;28;20064;-88
2021/03/17 04:17:50;;;;;;;1.90;1.65;;;;;;;4.87;92.59;96151.84;5006707;28;20029;-87
2021/03/17 04:20:18;;;;;;;1.95;0.65;;;;;;;4.89;92.53;96149.97;5007113;28;20047;-87
2021/03/17 04:22:45;;;;;;;2.75;1.35;;;;;;;4.88;93.07;96135.00;5023103;28;20116;-88
2021/03/17 04:25:11;;;;;;;1.20;1.10;;;;;;;4.91;94.59;96143.63;5021093;28;20443;-86
2021/03/17 04:27:38;;;;;;;1.08;1.02;;;;;;;4.91;92.58;96146.28;5004793;28;20034;-88
2021/03/17 04:30:05;;;;;;;1.50;1.40;;;;;;;4.83;90.46;96135.28;5005688;28;20057;-87
2021/03/17 04:32:32;;;;;;;4.43;1.70;;;;;;;4.83;89.58;96135.28;5005653;28;20575;-88
2021/03/17 04:34:57;;;;;;;2.10;1.10;;;;;;;4.85;89.08;96136.06;5024045;28;20425;-88
2021/03/17 04:37:23;;;;;;;0.45;0.45;;;;;;;4.74;90.18;96135.84;5007651;28;20121;-88
2021/03/17 04:39:51;;;;;;;0.63;0.63;;;;;;;4.88;89.16;96141.16;5005672;28;20468;-88
2021/03/17 04:42:17;;;;;;;3.75;1.67;;;;;;;4.87;89.80;96139.44;5002974;28;20112;-88
2021/03/17 04:44:43;;;;;;;0.93;0.93;;;;;;;4.91;91.49;96148.06;5018736;28;20044;-89
2021/03/17 04:47:12;;;;;;;2.58;1.58;;;;;;;4.92;91.00;96139.19;5001581;28;20060;-89
2021/03/17 04:49:39;;;;;;;0.82;0.75;;;;;;;4.85;91.46;96149.31;5000611;28;20022;-78
2021/03/17 04:52:05;;;;;;;2.30;1.77;;;;;;;4.88;90.50;96149.09;5016073;28;20033;-88
2021/03/17 04:54:30;;;;;;;1.00;0.82;;;;;;;4.90;89.55;96167.53;5016745;28;20029;-89
2021/03/17 04:56:56;;;;;;;1.70;1.45;;;;;;;4.89;88.12;96166.69;4999658;28;20033;-86
2021/03/17 04:59:22;;;;;;;3.42;1.63;;;;;;;4.93;87.44;96165.56;5015759;28;20025;-84
2021/03/17 05:01:48;;;;;;;1.30;1.20;;;;;;;4.86;86.98;96156.28;4999056;28;20119;-85
2021/03/17 05:04:15;;;;;;;1.63;1.33;;;;;;;4.80;88.16;96155.78;4999425;28;20029;-84
2021/03/17 05:06:44;;;;;;;1.45;1.10;;;;;;;4.82;89.96;96146.84;4999412;28;20163;-85
2021/03/17 05:09:10;;;;;;;2.47;1.38;;;;;;;4.86;91.48;96156.28;4999083;28;20489;-86
2021/03/17 05:11:36;;;;;;;3.05;1.95;;;;;;;4.89;91.27;96150.78;4999112;28;20037;-87
2021/03/17 05:14:02;;;;;;;5.57;3.70;;;;;;;4.92;90.21;96150.59;4999566;28;20037;-86
2021/03/17 05:16:28;;;;;;;2.28;2.08;;;;;;;4.93;91.10;96147.00;4999173;28;20110;-84
2021/03/17 05:18:53;;;;;;;2.67;2.25;;;;;;;4.83;89.80;96150.31;5015691;28;20397;-84
2021/03/17 05:21:19;;;;;;;1.83;1.67;;;;;;;4.80;87.68;96164.59;4999210;28;20025;-84
2021/03/17 05:23:45;;;;;;;2.80;2.25;;;;;;;4.76;88.12;96160.47;4999201;28;20053;-84
2021/03/17 05:26:11;;;;;;;3.17;2.83;;;;;;;4.87;90.04;96165.94;5015556;28;20025;-84
2021/03/17 05:28:39;;;;;;;4.00;3.30;;;;;;;4.89;91.26;96171.16;4998635;28;20032;-84
2021/03/17 05:31:06;;;;;;;2.03;1.83;;;;;;;4.88;91.84;96164.16;4998877;28;20540;-84
2021/03/17 05:33:32;;;;;;;2.45;2.05;;;;;;;4.84;90.53;96165.28;4998149;28;20021;-84
2021/03/17 05:35:58;;;;;;;3.05;2.72;;;;;;;4.90;88.72;96162.25;4998926;28;20033;-85
2021/03/17 05:38:23;;;;;;;2.83;2.58;;;;;;;4.88;87.64;96159.72;4999078;28;20114;-85
2021/03/17 05:40:49;;;;;;;2.03;1.38;;;;;;;4.93;88.62;96162.06;4998719;28;20034;-84
2021/03/17 05:43:15;;;;;;;7.65;2.85;;;;;;;4.89;86.50;96163.22;5014844;28;20109;-83
2021/03/17 05:45:40;;;;;;;0.57;0.57;;;;;;;4.86;86.13;96163.41;4998080;28;20053;-84
2021/03/17 05:48:07;;;;;;;1.25;1.15;;;;;;;4.91;85.93;96163.94;4998573;28;20030;-85
2021/03/17 05:50:33;;;;;;;1.75;0.70;;;;;;;4.96;87.01;96163.66;4998251;28;20508;-83
2021/03/17 05:53:00;;;;;;;0.70;0.50;;;;;;;4.98;86.53;96167.06;4998441;28;20030;-84
2021/03/17 05:55:26;;;;;;;3.45;0.80;;;;;;;5.04;86.87;96164.91;4998541;28;20485;-84
2021/03/17 05:57:52;;;;;;;3.58;2.92;;;;;;;5.01;87.65;96158.94;4998329;28;20043;-84
2021/03/17 06:00:21;;;;;;;3.28;2.67;;;;;;;5.04;86.18;96170.19;4997989;28;20060;-83
2021/03/17 06:02:48;;;;;;;3.22;2.65;;;;;;;5.10;87.09;96175.13;4997309;28;20029;-85
2021/03/17 06:05:14;;;;;;;9.52;3.65;;;;;;;5.07;88.83;96166.50;4997787;28;20110;-84
2021/03/17 06:07:49;;;;;;;3.67;2.95;;;;;;;5.12;86.74;96178.50;4999981;28;20508;-85
2021/03/17 06:10:15;;;;;;;4.75;3.50;;;;;;;5.12;87.13;96167.06;5014978;28;20036;-85
2021/03/17 06:12:43;;;;;;;2.50;2.30;;;;;;;5.16;88.72;96168.56;4997735;28;20405;-85
2021/03/17 06:15:09;;;;;;;7.22;3.58;;;;;;;5.20;86.15;96175.41;4997997;28;20040;-85
2021/03/17 06:17:36;;;;;;;7.53;4.00;;;;;;;5.24;86.48;96179.53;4997832;28;20033;-85
2021/03/17 06:20:11;;;;;;;4.45;1.95;;;;;;;5.25;83.30;96184.75;5015529;28;20021;-83
2021/03/17 06:22:37;;;;;;;3.80;3.50;;;;;;;5.25;81.65;96184.75;4999789;28;20025;-84
2021/03/17 06:25:05;;;;;;;1.85;1.10;;;;;;;5.27;80.96;96174.91;4997876;28;20090;-85
2021/03/17 06:27:32;;;;;;;1.55;1.42;;;;;;;5.34;83.25;96191.28;5014014;28;20416;-84
2021/03/17 06:29:58;;;;;;;3.10;2.42;;;;;;;5.35;83.29;96182.38;4998273;28;20423;-84
2021/03/17 06:32:25;;;;;;;2.33;2.13;;;;;;;5.44;84.10;96201.19;4997829;28;20044;-84
2021/03/17 06:34:52;;;;;;;1.73;1.63;;;;;;;5.41;82.27;96196.06;5014383;28;20025;-85
2021/03/17 06:37:17;;;;;;;7.30;3.90;;;;;;;5.47;85.97;96200.16;4997865;28;20021;-84
2021/03/17 06:39:43;;;;;;;2.38;2.13;;;;;;;5.45;87.36;96189.63;4998113;28;20021;-84
2021/03/17 06:42:10;;;;;;;1.92;1.70;;;;;;;5.57;86.86;96201.25;5014125;28;20026;-83
2021/03/17 06:44:36;;;;;;;3.72;2.38;;;;;;;5.57;87.30;96193.31;4997744;28;20038;-85
2021/03/17 06:47:11;;;;;;;1.10;1.02;;;;;;;5.56;86.36;96204.88;4997691;28;20056;-84
2021/03/17 06:49:39;;;;;;;1.65;1.55;;;;;;;5.54;86.11;96201.44;5014610;28;20482;-84
2021/03/17 06:52:27;;;;;;;3.03;1.25;;;;;;;5.63;81.95;96206.16;4997858;28;20448;-85
2021/03/17 06:55:14;;;;;;;3.63;2.53;;;;;;;5.67;83.64;96204.16;4997637;28;20025;-85
2021/03/17 06:57:42;;;;;;;4.22;2.80;;;;;;;5.70;85.21;96204.84;4986447;28;20047;-85
2021/03/17 07:00:37;;;;;;;3.85;2.88;;;;;;;5.80;84.21;96205.09;4998502;28;20060;-82
2021/03/17 07:03:11;;;;;;;2.42;1.73;;;;;;;5.86;83.92;96207.38;4995747;28;20041;-85
2021/03/17 07:05:42;;;;;;;2.63;2.33;;;;;;;5.92;82.66;96213.16;4997801;28;20121;-86
2021/03/17 07:08:13;;;;;;;5.10;3.05;;;;;;;5.87;80.35;96202.00;4997802;28;20038;-86
2021/03/17 07:10:43;;;;;;;3.03;1.40;;;;;;;5.84;81.63;96203.97;5014225;28;20544;-84
2021/03/17 07:13:10;;;;;;;4.13;2.30;;;;;;;5.92;80.22;96201.69;4998352;28;20472;-84
2021/03/17 07:15:37;;;;;;;4.68;3.05;;;;;;;5.99;80.06;96211.81;5002199;28;20124;-84
2021/03/17 07:18:26;;;;;;;3.88;3.05;;;;;;;5.83;82.32;96200.44;5001440;28;20018;-84
2021/03/17 07:21:03;;;;;;;0.80;0.80;;;;;;;5.63;74.49;96211.47;5017997;28;20048;-84
2021/03/17 07:23:43;;;;;;;2.88;2.05;;;;;;;5.58;78.42;96213.56;5001746;28;20112;-85
2021/03/17 07:26:16;;;;;;;2.85;2.42;;;;;;;5.72;79.79;96204.75;4995802;28;20489;-83
2021/03/17 07:28:48;;;;;;;2.78;2.33;;;;;;;5.77;79.26;96211.44;5018062;28;20030;-85
2021/03/17 07:31:19;;;;;;;7.28;3.63;;;;;;;5.88;77.27;96219.59;5017883;28;20037;-85
2021/03/17 07:33:46;;;;;;;2.92;2.28;;;;;;;5.86;80.09;96212.69;5001219;28;20037;-84
2021/03/17 07:36:13;;;;;;;2.78;2.55;;;;;;;5.78;80.27;96210.47;5001166;28;20466;-83
2021/03/17 07:38:39;;;;;;;5.28;2.58;;;;;;;5.78;81.56;96221.09;5001789;28;20512;-85
2021/03/17 07:41:04;;;;;;;3.40;2.08;;;;;;;5.80;81.19;96213.91;5018084;28;20029;-86
2021/03/17 07:43:34;;;;;;;4.80;3.72;;;;;;;5.85;80.91;96222.44;5017694;28;20112;-85
2021/03/17 07:46:00;;;;;;;4.15;3.20;;;;;;;5.78;80.44;96207.84;5001089;28;20041;-86
2021/03/17 07:48:27;;;;;;;4.63;3.72;;;;;;;5.85;81.95;96211.84;5001112;28;20508;-85
2021/03/17 07:50:53;;;;;;;2.72;2.53;;;;;;;5.88;82.35;96235.50;5000664;28;20563;-84
2021/03/17 07:53:25;;;;;;;1.65;1.55;;;;;;;5.97;79.08;96234.91;5017773;28;20025;-84
2021/03/17 07:55:56;;;;;;;2.38;1.38;;;;;;;5.85;79.40;96227.75;5017290;28;20191;-85
2021/03/17 07:58:21;;;;;;;2.55;1.55;;;;;;;5.78;79.43;96229.06;5001133;28;20060;-83
2021/03/17 08:00:47;;;;;;;4.45;2.55;;;;;;;5.59;78.30;96225.03;5001011;28;20095;-83
2021/03/17 08:03:14;;;;;;;2.33;2.13;;;;;;;5.46;80.25;96220.50;5000995;28;20025;-84
2021/03/17 08:05:39;;;;;;;6.22;3.08;;;;;;;5.31;81.85;96220.63;5000750;28;20032;-84
2021/03/17 08:08:09;;;;;;;3.70;1.88;;;;;;;5.31;82.16;96216.19;5000454;28;20030;-84
2021/03/17 08:10:39;;;;;;;0.75;0.68;;;;;;;5.22;83.14;96237.09;5001327;28;20026;-85
2021/03/17 08:13:06;;;;;;;1.48;0.95;;;;;;;5.06;84.12;96225.72;5000833;28;20029;-85
2021/03/17 08:15:32;;;;;;;1.52;1.10;;;;;;;4.99;82.24;96219.94;5017648;28;20029;-85
2021/03/17 08:17:57;;;;;;;8.77;5.38;;;;;;;5.04;84.19;96232.94;4997443;28;20022;-85
2021/03/17 08:20:24;;;;;;;2.40;2.08;;;;;;;5.04;84.99;96235.59;4981633;28;19998;-85
2021/03/17 08:22:52;;;;;;;6.47;4.50;;;;;;;4.73;86.52;96224.22;5001285;28;20021;-84
2021/03/17 08:25:38;;;;;;;1.27;1.23;;;;;;;4.75;87.75;96230.25;5001711;28;20049;-85
2021/03/17 08:28:27;;;;;;;4.13;2.75;;;;;;;4.65;88.57;96230.88;5002093;28;20029;-87
2021/03/17 08:30:55;;;;;;;6.95;3.63;;;;;;;4.70;87.80;96240.28;5001840;28;20025;-85
2021/03/17 08:33:31;;;;;;;2.75;2.42;;;;;;;4.66;88.91;96237.88;5020447;28;20501;-86
2021/03/17 08:36:05;;;;;;;0.93;0.93;;;;;;;4.57;90.38;96249.88;5036901;28;20028;-85
2021/03/17 08:38:43;;;;;;;5.68;3.08;;;;;;;4.54;88.23;96251.84;5018338;28;20473;-86
2021/03/17 08:41:09;;;;;;;0.98;0.98;;;;;;;4.37;87.29;96219.28;5016787;28;20052;-84
2021/03/17 08:43:34;;;;;;;0.55;0.55;;;;;;;4.55;88.38;96246.50;5000299;28;20099;-84
2021/03/17 08:46:07;;;;;;;2.55;1.58;;;;;;;4.62;90.67;96258.41;5016858;28;20061;-83
2021/03/17 08:48:57;;;;;;;3.58;2.72;;;;;;;4.64;90.68;96250.38;5001879;28;20116;-85
2021/03/17 08:51:44;;;;;;;1.13;1.13;;;;;;;4.63;89.59;96249.53;5000886;28;20617;-84
2021/03/17 08:54:34;;;;;;;3.45;2.17;;;;;;;4.71;90.31;96241.09;5015863;28;20027;-84
2021/03/17 08:57:07;;;;;;;2.72;2.20;;;;;;;4.79;93.03;96250.31;5034147;28;20104;-85
2021/03/17 08:59:40;;;;;;;1.40;1.30;;;;;;;4.81;92.57;96247.56;5017021;28;20021;-84
2021/03/17 09:02:19;;;;;;;3.25;2.78;;;;;;;4.66;92.18;96235.25;5015421;28;20026;-84
2021/03/17 09:04:49;;;;;;;0.80;0.80;;;;;;;4.75;92.71;96235.53;5015779;28;20030;-85
2021/03/17 09:07:16;;;;;;;0.82;0.82;;;;;;;4.72;92.50;96242.81;5000141;28;20072;-85
2021/03/17 09:09:51;;;;;;;1.52;1.42;;;;;;;4.64;93.75;96234.50;4999903;28;20089;-86
2021/03/17 09:12:19;;;;;;;4.70;2.15;;;;;;;4.67;93.90;96231.66;4996477;28;20029;-85
2021/03/17 09:14:45;;;;;;;1.45;1.17;;;;;;;4.52;95.04;96243.16;4979896;28;20458;-84
2021/03/17 09:17:43;;;;;;;1.73;1.35;;;;;;;4.31;96.06;96250.53;4998595;28;20128;-84
2021/03/17 09:20:30;;;;;;;3.25;2.63;;;;;;;4.14;97.57;96235.66;4989106;28;20042;-84
2021/03/17 09:23:18;;;;;;;7.00;3.83;;;;;;;4.30;97.99;96244.44;4999054;28;20056;-84
2021/03/17 09:25:52;;;;;;;2.85;1.98;;;;;;;4.27;97.34;96239.31;4999408;28;20029;-84
2021/03/17 09:28:22;;;;;;;2.47;1.63;;;;;;;4.28;97.75;96243.66;4999178;28;20480;-84
2021/03/17 09:31:08;;;;;;;1.92;1.38;;;;;;;4.39;98.70;96235.09;4999861;28;20037;-84
2021/03/17 09:33:45;;;;;;;1.13;1.02;;;;;;;4.47;97.59;96248.72;4999686;28;20520;-84
2021/03/17 09:36:23;;;;;;;5.95;2.85;;;;;;;4.54;97.93;96242.13;4999781;28;20032;-84
2021/03/17 09:38:55;;;;;;;2.42;1.75;;;;;;;4.50;97.29;96247.69;4999688;28;20030;-84
2021/03/17 09:41:29;;;;;;;0.73;0.57;;;;;;;4.57;96.43;96249.88;4998194;28;20033;-84
2021/03/17 09:43:57;;;;;;;2.60;1.20;;;;;;;4.48;97.00;96255.72;4979561;28;20033;-84
2021/03/17 09:46:31;;;;;;;1.80;1.70;;;;;;;4.63;98.77;96249.53;4995930;28;20061;-85
2021/03/17 09:49:19;;;;;;;2.63;1.17;;;;;;;4.59;94.85;96255.94;4995725;28;20026;-84
2021/03/17 09:51:45;;;;;;;0.52;0.52;;;;;;;4.59;96.36;96263.88;4979644;28;20034;-84
2021/03/17 09:54:12;;;;;;;2.40;1.65;;;;;;;4.64;95.98;96256.53;5013200;28;20026;-84
2021/03/17 09:56:43;;;;;;;0.73;0.73;;;;;;;4.62;96.86;96265.47;4998978;28;20566;-84
2021/03/17 09:59:29;;;;;;;1.80;1.20;;;;;;;4.65;94.59;96263.50;5033055;28;20022;-84
2021/03/17 10:02:17;;;;;;;2.92;1.90;;;;;;;4.47;95.99;96263.75;5015365;28;20413;-84
2021/03/17 10:04:50;;;;;;;11.68;5.85;;;;;;;4.40;96.94;96263.25;4999034;28;20386;-85
2021/03/17 10:07:20;;;;;;;3.63;3.33;;;;;;;4.35;96.50;96273.25;4998799;28;20112;-85
2021/03/17 10:09:46;;;;;;;7.63;5.70;;;;;;;4.34;99.10;96266.25;5015357;28;20029;-85
2021/03/17 10:12:25;;;;;;;8.15;5.80;;;;;;;4.28;98.71;96271.91;4999192;28;20029;-84
2021/03/17 10:15:03;;;;;;;13.65;9.32;;;;;;;3.99;100.00;96240.97;4998958;28;20045;-85
2021/03/17 10:17:32;;;;;;;5.78;1.45;;;;;;;4.10;100.00;96276.47;5000224;28;20037;-85
2021/03/17 10:20:00;;;;;;;3.88;3.50;;;;;;;3.93;98.74;96246.63;5016041;28;20075;-85
2021/03/17 10:22:28;;;;;;;2.53;2.05;;;;;;;4.18;100.00;96276.84;4998736;28;20087;-85
2021/03/17 10:24:58;;;;;;;0.88;0.65;;;;;;;4.07;99.48;96265.19;5015474;28;20026;-85
2021/03/17 10:27:44;;;;;;;2.65;2.33;;;;;;;4.10;99.91;96272.94;5002141;28;20108;-85
2021/03/17 10:30:29;;;;;;;1.00;0.90;;;;;;;4.04;100.00;96275.94;5002071;28;20029;-83
2021/03/17 10:32:56;;;;;;;0.63;0.63;;;;;;;4.07;100.00;96275.78;5002192;28;20057;-85
2021/03/17 10:35:22;;;;;;;0.75;0.75;;;;;;;4.02;100.00;96278.69;5000173;28;20029;-85
2021/03/17 10:37:49;;;;;;;1.85;1.63;;;;;;;3.94;100.00;96277.44;5001858;28;20524;-85
2021/03/17 10:40:17;;;;;;;2.08;1.85;;;;;;;4.00;100.00;96280.56;5000223;28;20033;-85
2021/03/17 10:42:44;;;;;;;1.70;1.33;;;;;;;3.94;99.97;96280.06;5000594;28;20030;-86
2021/03/17 10:45:15;;;;;;;5.50;4.30;;;;;;;3.86;100.00;96272.56;5001394;28;20136;-85
2021/03/17 10:47:43;;;;;;;1.75;1.65;;;;;;;3.92;100.00;96271.34;4997545;28;20127;-86
2021/03/17 10:50:14;;;;;;;1.92;1.80;;;;;;;4.06;100.00;96271.44;4999157;28;20055;-85
2021/03/17 10:52:45;;;;;;;3.05;2.80;;;;;;;4.12;100.00;96279.03;4999174;28;20076;-85
2021/03/17 10:55:23;;;;;;;1.27;1.05;;;;;;;4.11;100.00;96274.66;4998450;28;20053;-85
2021/03/17 10:57:50;;;;;;;2.45;2.25;;;;;;;4.16;100.00;96264.66;5014896;28;20036;-86
2021/03/17 11:00:20;;;;;;;2.70;2.42;;;;;;;4.21;100.00;96246.75;4998688;28;20056;-84
2021/03/17 11:02:45;;;;;;;5.88;1.70;;;;;;;4.32;100.00;96261.06;4998776;28;20390;-84
2021/03/17 11:05:13;;;;;;;4.07;2.17;;;;;;;4.64;100.00;96274.22;4998387;28;20032;-85
2021/03/17 11:07:57;;;;;;;7.22;1.75;;;;;;;4.77;98.58;96275.16;5014926;28;20501;-85
2021/03/17 11:10:35;;;;;;;7.68;4.10;;;;;;;4.80;98.38;96270.53;5014676;28;20037;-85
2021/03/17 11:13:01;;;;;;;1.77;1.67;;;;;;;4.87;98.01;96274.53;5014926;28;20022;-87
2021/03/17 11:15:29;;;;;;;7.70;2.38;;;;;;;4.88;95.03;96270.97;5015070;28;20025;-87
2021/03/17 11:17:55;;;;;;;0.93;0.93;;;;;;;4.88;95.77;96278.03;4998357;28;20124;-86
2021/03/17 11:20:22;;;;;;;1.42;1.33;;;;;;;4.94;93.35;96275.03;4998147;28;20507;-86
2021/03/17 11:22:47;;;;;;;3.20;1.65;;;;;;;4.98;91.88;96267.75;4998126;28;20021;-86
2021/03/17 11:25:13;;;;;;;1.70;1.60;;;;;;;5.02;91.82;96275.41;5014423;28;20445;-84
2021/03/17 11:27:42;;;;;;;0.95;0.80;;;;;;;4.98;91.14;96271.25;4998285;28;20026;-85
2021/03/17 11:30:10;;;;;;;2.28;1.52;;;;;;;5.07;91.88;96278.66;4998542;28;20029;-85
2021/03/17 11:32:35;;;;;;;1.67;1.50;;;;;;;5.24;91.90;96272.31;4997552;28;20056;-84
2021/03/17 11:35:02;;;;;;;1.02;0.90;;;;;;;5.52;91.57;96272.31;4997747;28;20025;-85
2021/03/17 11:37:28;;;;;;;0.80;0.80;;;;;;;5.67;86.44;96276.63;4998147;28;20519;-85
2021/03/17 11:39:54;;;;;;;1.15;1.08;;;;;;;5.70;84.92;96268.50;4998156;28;20060;-85
2021/03/17 11:42:19;;;;;;;0.88;0.88;;;;;;;5.69;87.11;96263.31;5000176;28;20033;-84
2021/03/17 11:44:45;;;;;;;2.17;1.35;;;;;;;5.67;86.81;96255.41;4998761;28;20018;-86
2021/03/17 11:47:10;;;;;;;2.03;1.52;;;;;;;5.58;87.24;96268.41;4998208;28;20052;-86
2021/03/17 11:49:36;;;;;;;2.03;1.85;;;;;;;5.60;87.66;96272.66;4998050;28;20025;-85
2021/03/17 11:52:02;;;;;;;1.05;1.02;;;;;;;5.71;88.35;96282.63;4997997;28;20448;-86